createdAt,value
2018-12-10T00:01:59.844Z,39.14
2018-12-10T00:07:10.830Z,39.23
2018-12-10T00:12:22.443Z,39.31
2018-12-10T00:17:35.017Z,39.26
2018-12-10T00:22:45.573Z,39.15
2018-12-10T00:27:58.195Z,39.16
2018-12-10T00:33:13.802Z,39.21
2018-12-10T00:38:24.532Z,38.87
2018-12-10T00:43:48.664Z,39.36
2018-12-10T00:49:00.547Z,39.24
2018-12-10T00:54:10.821Z,39.32
2018-12-10T00:59:21.559Z,39.04
2018-12-10T01:04:32.600Z,39.09
2018-12-10T01:09:43.418Z,39.10
2018-12-10T01:14:54.902Z,39.41
2018-12-10T01:20:06.536Z,39.27
2018-12-10T01:25:17.878Z,39.29
2018-12-10T01:30:54.395Z,39.12
2018-12-10T01:36:06.200Z,39.17
2018-12-10T01:41:17.559Z,39.24
2018-12-10T01:46:28.782Z,39.34
2018-12-10T01:51:39.650Z,39.22
2018-12-10T01:56:49.438Z,38.91
2018-12-10T02:02:29.497Z,39.34
2018-12-10T02:07:40.893Z,39.20
2018-12-10T02:12:55.588Z,39.40
2018-12-10T02:18:07.606Z,39.07
2018-12-10T02:23:35.702Z,39.43
2018-12-10T02:28:51.787Z,39.47
2018-12-10T02:34:14.591Z,39.57
2018-12-10T02:39:25.847Z,39.41
2018-12-10T02:47:48.687Z,39.28
2018-12-10T02:53:12.352Z,39.30
2018-12-10T02:58:23.609Z,39.19
2018-12-10T03:06:46.557Z,39.68
2018-12-10T03:11:57.787Z,39.47
2018-12-10T03:17:09.389Z,39.45
2018-12-10T03:22:19.859Z,39.38
2018-12-10T03:27:31.310Z,39.22
2018-12-10T03:32:46.651Z,39.38
2018-12-10T03:37:57.667Z,39.02
2018-12-10T03:43:15.438Z,39.22
2018-12-10T03:48:26.572Z,39.16
2018-12-10T03:53:37.623Z,39.54
2018-12-10T03:58:48.825Z,39.26
2018-12-10T04:04:00.438Z,39.36
2018-12-10T04:09:11.825Z,39.39
2018-12-10T04:14:22.416Z,39.39
2018-12-10T04:19:33.912Z,39.45
2018-12-10T04:24:45.745Z,39.11
2018-12-10T04:30:02.445Z,39.21
2018-12-10T04:35:14.707Z,39.20
2018-12-10T04:40:27.723Z,39.53
2018-12-10T04:45:38.767Z,39.27
2018-12-10T04:50:53.726Z,39.40
2018-12-10T04:56:03.548Z,39.68
2018-12-10T05:01:32.965Z,39.61
2018-12-10T05:04:03.173Z,39.19
2018-12-10T05:09:14.611Z,39.36
2018-12-10T05:14:55.341Z,38.72
2018-12-10T05:20:06.626Z,39.30
2018-12-10T05:25:17.624Z,39.42
2018-12-10T05:30:38.899Z,39.51
2018-12-10T05:35:49.575Z,39.55
2018-12-10T05:41:20.181Z,39.69
2018-12-10T05:46:31.659Z,39.31
2018-12-10T05:51:42.813Z,39.32
2018-12-10T05:56:54.369Z,39.06
2018-12-10T06:02:05.892Z,39.27
2018-12-10T06:07:16.535Z,39.20
2018-12-10T06:12:30.566Z,39.39
2018-12-10T06:17:41.721Z,39.79
2018-12-10T06:22:57.577Z,39.32
2018-12-10T06:28:08.884Z,39.58
2018-12-10T06:33:19.866Z,39.56
2018-12-10T06:38:30.618Z,39.81
2018-12-10T06:43:45.584Z,39.63
2018-12-10T06:48:56.519Z,40.01
2018-12-10T06:57:18.353Z,40.06
2018-12-10T07:02:29.323Z,39.67
2018-12-10T07:07:40.747Z,40.17
2018-12-10T07:12:51.712Z,39.70
2018-12-10T07:18:02.553Z,39.93
2018-12-10T07:23:26.800Z,39.90
2018-12-10T07:28:38.014Z,40.00
2018-12-10T07:33:55.902Z,40.07
2018-12-10T07:39:09.548Z,39.92
2018-12-10T07:44:37.714Z,40.11
2018-12-10T07:49:50.684Z,40.24
2018-12-10T07:55:01.592Z,40.16
2018-12-10T08:00:28.856Z,40.17
2018-12-10T08:05:39.671Z,40.28
2018-12-10T08:10:53.788Z,40.52
2018-12-10T08:16:04.581Z,40.08
2018-12-10T08:21:20.197Z,40.28
2018-12-10T08:26:30.981Z,40.22
2018-12-10T08:31:42.578Z,40.27
2018-12-10T08:36:55.602Z,40.40
2018-12-10T08:42:07.583Z,40.08
2018-12-10T08:47:17.684Z,40.24
2018-12-10T08:52:31.867Z,40.25
2018-12-10T08:57:42.609Z,40.43
2018-12-10T09:02:52.553Z,40.25
2018-12-10T09:08:03.824Z,40.28
2018-12-10T09:13:18.568Z,40.49
2018-12-10T09:18:29.770Z,40.15
2018-12-10T09:23:40.569Z,40.08
2018-12-10T09:28:51.597Z,40.11
2018-12-10T09:34:10.547Z,40.44
2018-12-10T09:39:21.773Z,40.41
2018-12-10T09:44:32.576Z,40.57
2018-12-10T09:49:48.456Z,40.76
2018-12-10T09:54:59.742Z,40.49
2018-12-10T10:00:13.287Z,40.24
2018-12-10T10:05:24.591Z,40.65
2018-12-10T10:10:48.486Z,40.58
2018-12-10T10:15:59.744Z,40.61
2018-12-10T10:21:11.413Z,40.61
2018-12-10T10:26:22.749Z,40.49
2018-12-10T10:37:26.563Z,40.22
2018-12-10T10:42:43.776Z,40.15
2018-12-10T10:47:54.490Z,40.30
2018-12-10T10:53:04.699Z,40.39
2018-12-10T10:58:15.564Z,40.19
2018-12-10T11:04:05.684Z,40.23
2018-12-10T11:09:18.229Z,39.99
2018-12-10T11:14:42.717Z,40.01
2018-12-10T11:19:59.870Z,40.40
2018-12-10T11:25:10.908Z,40.19
2018-12-10T11:33:02.711Z,40.25
2018-12-10T11:38:13.795Z,40.30
2018-12-10T11:43:24.805Z,40.39
2018-12-10T11:48:35.609Z,40.41
2018-12-10T11:53:46.777Z,40.30
2018-12-10T11:58:57.912Z,40.43
2018-12-10T12:04:08.736Z,40.16
2018-12-10T12:09:19.575Z,40.29
2018-12-10T12:14:31.845Z,40.12
2018-12-10T12:19:42.595Z,39.85
2018-12-10T12:24:53.564Z,39.85
2018-12-10T12:30:10.452Z,40.24
2018-12-10T12:35:21.729Z,39.67
2018-12-10T12:40:33.597Z,39.66
2018-12-10T12:45:44.793Z,39.84
2018-12-10T12:51:01.429Z,39.75
2018-12-10T12:56:13.358Z,39.43
2018-12-10T13:01:49.080Z,39.51
2018-12-10T13:07:02.672Z,39.41
2018-12-10T13:12:13.558Z,40.04
2018-12-10T13:17:24.872Z,40.31
2018-12-10T13:22:35.770Z,40.17
2018-12-10T13:27:46.887Z,40.06
2018-12-10T13:32:59.594Z,40.11
2018-12-10T13:38:12.588Z,40.19
2018-12-10T13:43:23.663Z,40.10
2018-12-10T13:48:34.568Z,39.98
2018-12-10T13:53:58.437Z,40.11
2018-12-10T13:59:10.707Z,39.71
2018-12-10T14:04:29.965Z,39.36
2018-12-10T14:09:41.498Z,39.93
2018-12-10T14:14:53.479Z,39.96
2018-12-10T14:20:05.688Z,40.04
2018-12-10T14:25:34.759Z,40.23
2018-12-10T14:31:14.733Z,40.14
2018-12-10T14:36:33.503Z,40.27
2018-12-10T14:44:31.481Z,40.53
2018-12-10T14:49:42.367Z,40.07
2018-12-10T14:54:52.666Z,40.18
2018-12-10T15:00:03.524Z,39.17
2018-12-10T15:05:14.300Z,22.92
2018-12-10T15:10:29.287Z,18.18
2018-12-10T15:15:40.002Z,18.92
2018-12-10T15:20:54.724Z,20.09
2018-12-10T15:26:05.712Z,21.68
2018-12-10T15:31:16.815Z,23.45
2018-12-10T15:36:27.763Z,25.25
2018-12-10T15:41:59.636Z,26.78
2018-12-10T15:47:10.959Z,27.66
2018-12-10T15:52:21.551Z,29.46
2018-12-10T15:57:34.429Z,30.34
2018-12-10T16:02:49.587Z,31.22
2018-12-10T16:08:00.844Z,31.68
2018-12-10T16:13:11.593Z,32.50
2018-12-10T16:18:22.821Z,33.30
2018-12-10T16:23:40.802Z,33.96
2018-12-10T16:28:51.724Z,34.64
2018-12-10T16:34:04.200Z,35.02
2018-12-10T16:39:16.066Z,35.19
2018-12-10T16:44:26.803Z,35.61
2018-12-10T16:52:18.311Z,36.38
2018-12-10T16:57:29.678Z,36.47
2018-12-10T17:02:40.476Z,36.84
2018-12-10T17:07:58.724Z,37.15
2018-12-10T17:13:09.583Z,37.24
2018-12-10T17:18:20.571Z,37.40
2018-12-10T17:23:30.567Z,37.38
2018-12-10T17:31:12.662Z,37.38
2018-12-10T17:36:23.772Z,37.86
2018-12-10T17:41:35.606Z,37.94
2018-12-10T17:48:32.910Z,38.33
2018-12-10T17:53:44.310Z,36.78
2018-12-10T17:58:55.757Z,33.96
2018-12-10T18:07:17.797Z,33.29
2018-12-10T18:12:30.303Z,34.05
2018-12-10T18:17:41.873Z,34.60
2018-12-10T18:22:54.305Z,35.62
2018-12-10T18:28:05.905Z,35.96
2018-12-10T18:33:16.721Z,36.63
2018-12-10T18:38:27.599Z,36.87
2018-12-10T18:43:45.712Z,37.50
2018-12-10T18:48:57.202Z,37.91
2018-12-10T18:54:08.198Z,37.84
2018-12-10T18:59:19.571Z,37.98
2018-12-10T19:04:30.629Z,38.46
2018-12-10T19:09:42.308Z,38.33
2018-12-10T19:14:54.267Z,38.73
2018-12-10T19:20:05.027Z,38.76
2018-12-10T19:25:15.936Z,38.79
2018-12-10T19:30:27.305Z,38.77
2018-12-10T19:35:38.535Z,38.61
2018-12-10T19:40:49.909Z,38.53
2018-12-10T19:47:26.705Z,36.84
2018-12-10T19:52:37.620Z,36.19
2018-12-10T19:57:50.553Z,36.12
2018-12-10T20:03:04.998Z,36.78
2018-12-10T20:08:27.367Z,37.24
2018-12-10T20:13:48.010Z,37.28
2018-12-10T20:18:59.877Z,38.04
2018-12-10T20:24:10.665Z,38.28
2018-12-10T20:29:22.894Z,38.06
2018-12-10T20:34:33.846Z,38.58
2018-12-10T20:39:44.881Z,38.70
2018-12-10T20:44:55.566Z,39.10
2018-12-10T20:53:11.300Z,39.23
2018-12-10T20:58:22.633Z,38.97
2018-12-10T21:03:34.262Z,39.37
2018-12-10T21:08:57.550Z,39.40
2018-12-10T21:14:09.877Z,39.30
2018-12-10T21:19:21.279Z,39.31
2018-12-10T21:24:33.609Z,39.46
2018-12-10T21:29:44.560Z,39.07
2018-12-10T21:34:55.837Z,39.24
2018-12-10T21:40:06.782Z,39.43
2018-12-10T21:45:18.618Z,39.25
2018-12-10T21:50:29.996Z,39.52
2018-12-10T21:55:40.876Z,39.52
2018-12-10T22:00:54.246Z,39.77
2018-12-10T22:06:05.679Z,39.35
2018-12-10T22:11:17.704Z,39.35
2018-12-10T22:16:28.800Z,39.45
2018-12-10T22:21:27.540Z,39.51
2018-12-10T22:26:38.804Z,39.73
2018-12-10T22:31:50.826Z,39.88
2018-12-10T22:37:02.305Z,39.87
2018-12-10T22:42:15.855Z,39.77
2018-12-10T22:47:27.452Z,39.70
2018-12-10T22:52:38.748Z,39.92
2018-12-10T22:57:49.865Z,40.02
2018-12-10T23:03:07.317Z,39.67
2018-12-10T23:08:18.587Z,39.91
2018-12-10T23:13:30.473Z,39.78
2018-12-10T23:18:41.898Z,39.50
2018-12-10T23:23:53.803Z,39.53
2018-12-10T23:29:04.377Z,39.57
2018-12-10T23:34:14.853Z,39.77
2018-12-10T23:39:25.695Z,39.30
2018-12-10T23:44:41.733Z,39.30
2018-12-10T23:49:52.601Z,39.49
2018-12-10T23:55:03.925Z,39.54
